Time;durP1;ratioP1;P1;durP2;ratioP2;P2;SDS_P1;SDS_P2;PMS_P1;PMS_P2;Temp;Humidity;BMP_temperature;BMP_pressure;BME280_temperature;BME280_humidity;BME280_pressure;Samples;Min_cycle;Max_cycle;Signal;HPM_P1;HPM_P2
2024/02/03 00:00:24;;;;;;;1.77;0.28;;;;;;;11.57;100.00;101488.31;4915157;29;20047;-85
2024/02/03 00:03:11;;;;;;;0.35;0.20;;;;;;;11.62;100.00;101492.28;4906725;29;20038;-84
2024/02/03 00:05:43;;;;;;;1.85;0.25;;;;;;;11.58;100.00;101501.41;4894010;29;20718;-85
2024/02/03 00:08:31;;;;;;;0.60;0.25;;;;;;;11.65;100.00;101493.81;4902742;29;20047;-85
2024/02/03 00:11:03;;;;;;;0.88;0.25;;;;;;;11.59;100.00;101491.69;4876516;29;20048;-85
2024/02/03 00:13:33;;;;;;;0.90;0.22;;;;;;;11.62;100.00;101502.88;4892290;29;20047;-89
2024/02/03 00:15:59;;;;;;;0.77;0.10;;;;;;;11.62;100.00;101494.94;4914450;29;20375;-87
2024/02/03 00:18:50;;;;;;;0.15;0.10;;;;;;;11.66;100.00;101498.16;4934198;28;20133;-86
2024/02/03 00:21:15;;;;;;;0.17;0.10;;;;;;;11.62;100.00;101500.22;4941659;28;20039;-86
2024/02/03 00:23:55;;;;;;;;;;;;;;;;;;;;;
2024/02/03 00:26:26;;;;;;;0.10;0.10;;;;;;;11.66;100.00;101498.16;4953538;28;20421;-84
2024/02/03 00:28:54;;;;;;;0.22;0.22;;;;;;;11.65;100.00;101507.91;4930763;28;20075;-84
2024/02/03 00:31:19;;;;;;;0.47;0.10;;;;;;;11.64;100.00;101508.88;4939147;28;20035;-85
2024/02/03 00:33:49;;;;;;;0.80;0.20;;;;;;;11.71;100.00;101498.63;4937560;28;20711;-85
2024/02/03 00:36:23;;;;;;;0.57;0.20;;;;;;;11.71;100.00;101503.91;4972131;28;20041;-86
2024/02/03 00:38:49;;;;;;;0.28;0.13;;;;;;;11.62;100.00;101494.94;4937423;28;20050;-84
2024/02/03 00:41:15;;;;;;;0.65;0.13;;;;;;;11.62;100.00;101486.13;4944629;28;20034;-84
2024/02/03 00:43:40;;;;;;;0.20;0.10;;;;;;;11.61;100.00;101481.81;4946898;28;20606;-84
2024/02/03 00:46:06;;;;;;;0.57;0.20;;;;;;;11.61;100.00;101481.81;4957752;28;20074;-85
2024/02/03 00:48:32;;;;;;;0.20;0.10;;;;;;;11.62;100.00;101492.28;4938620;28;20482;-85
2024/02/03 00:50:58;;;;;;;1.35;0.10;;;;;;;11.62;100.00;101494.94;4939446;28;20034;-88
2024/02/03 00:53:36;;;;;;;0.45;0.10;;;;;;;11.67;100.00;101494.56;4946796;28;20030;-85
2024/02/03 00:56:06;;;;;;;0.75;0.10;;;;;;;11.64;100.00;101492.97;4980092;28;20493;-84
2024/02/03 00:58:31;;;;;;;0.38;0.10;;;;;;;11.60;100.00;101480.09;4950943;28;20138;-84
2024/02/03 01:00:57;;;;;;;1.17;0.10;;;;;;;11.64;100.00;101482.38;4952899;28;20046;-84
2024/02/03 01:03:54;;;;;;;0.17;0.17;;;;;;;11.68;100.00;101471.53;4928241;28;20030;-86
2024/02/03 01:06:51;;;;;;;0.45;0.10;;;;;;;11.64;100.00;101465.66;4942836;28;20050;-85
2024/02/03 01:09:17;;;;;;;0.28;0.10;;;;;;;11.59;100.00;101466.06;4948070;28;20117;-84
2024/02/03 01:12:17;;;;;;;0.10;0.10;;;;;;;11.58;100.00;101471.47;4950684;28;20031;-83
2024/02/03 01:15:03;;;;;;;0.00;0.00;;;;;;;11.63;100.00;101458.69;4966731;28;20781;-84
2024/02/03 01:17:29;;;;;;;2.20;0.10;;;;;;;11.64;100.00;101470.97;4953217;28;20031;-85
2024/02/03 01:19:55;;;;;;;0.10;0.10;;;;;;;11.65;100.00;101468.19;4939498;28;20116;-83
2024/02/03 01:22:21;;;;;;;0.43;0.13;;;;;;;11.63;100.00;101472.75;4923791;28;20137;-85
2024/02/03 01:25:00;;;;;;;0.17;0.10;;;;;;;11.69;100.00;101478.53;4957034;28;20061;-89
2024/02/03 01:27:26;;;;;;;0.40;0.10;;;;;;;11.62;100.00;101462.31;4941581;28;20438;-86
2024/02/03 01:29:53;;;;;;;1.33;0.35;;;;;;;11.63;100.00;101469.25;4942809;28;20044;-85
2024/02/03 01:32:19;;;;;;;1.00;0.10;;;;;;;11.60;100.00;101462.44;4936125;28;20093;-84
2024/02/03 01:34:48;;;;;;;0.25;0.15;;;;;;;11.63;100.00;101474.56;4943172;28;20035;-88
2024/02/03 01:37:21;;;;;;;0.17;0.05;;;;;;;11.55;100.00;101477.84;4934949;28;20393;-86
2024/02/03 01:39:47;;;;;;;0.32;0.10;;;;;;;11.56;100.00;101473.41;4950337;28;20049;-84
2024/02/03 01:42:13;;;;;;;1.45;0.10;;;;;;;11.56;100.00;101478.69;4979181;28;20034;-86
2024/02/03 01:44:42;;;;;;;0.10;0.10;;;;;;;11.56;100.00;101471.59;4936503;28;20037;-85
2024/02/03 01:47:08;;;;;;;0.30;0.10;;;;;;;11.56;100.00;101473.41;4955005;28;20026;-83
2024/02/03 01:49:34;;;;;;;1.23;0.20;;;;;;;11.58;100.00;101477.59;4940222;28;20046;-84
2024/02/03 01:52:00;;;;;;;0.45;0.20;;;;;;;11.60;100.00;101465.06;4936282;28;20370;-85
2024/02/03 01:54:28;;;;;;;0.60;0.20;;;;;;;11.57;100.00;101464.47;4942693;28;20113;-85
2024/02/03 01:56:58;;;;;;;0.63;0.30;;;;;;;11.59;100.00;101470.50;4939077;28;20509;-84
2024/02/03 01:59:31;;;;;;;1.60;0.13;;;;;;;11.57;100.00;101465.31;4945524;28;20489;-84
2024/02/03 02:01:59;;;;;;;0.17;0.10;;;;;;;11.50;100.00;101464.13;4925950;28;20497;-86
2024/02/03 02:04:27;;;;;;;0.13;0.10;;;;;;;11.47;100.00;101454.63;4953984;28;20113;-86
2024/02/03 02:06:52;;;;;;;1.70;0.40;;;;;;;11.48;100.00;101455.50;4971660;28;20030;-85
2024/02/03 02:09:23;;;;;;;0.77;0.30;;;;;;;11.48;100.00;101461.59;4919463;28;20102;-83
2024/02/03 02:11:49;;;;;;;0.98;0.20;;;;;;;11.46;100.00;101465.34;4934201;28;20027;-88
2024/02/03 02:14:15;;;;;;;0.60;0.30;;;;;;;11.44;100.00;101461.97;4950373;28;20393;-86
2024/02/03 02:16:42;;;;;;;1.05;0.20;;;;;;;11.40;100.00;101461.41;4926001;28;20026;-93
2024/02/03 02:19:11;;;;;;;0.82;0.40;;;;;;;11.37;100.00;101466.97;4939947;28;20066;-93
2024/02/03 02:21:37;;;;;;;0.30;0.22;;;;;;;11.39;100.00;101472.94;4938952;28;20493;-93
2024/02/03 02:24:03;;;;;;;1.45;0.22;;;;;;;11.37;100.00;101470.41;4947026;28;20046;-93
2024/02/03 02:26:32;;;;;;;0.65;0.20;;;;;;;11.33;100.00;101471.66;4937449;28;20027;-92
2024/02/03 02:29:01;;;;;;;1.55;0.30;;;;;;;11.32;100.00;101483.22;4939899;28;20035;-92
2024/02/03 02:31:27;;;;;;;2.90;0.20;;;;;;;11.31;100.00;101480.69;4926038;28;20592;-94
2024/02/03 02:33:54;;;;;;;1.88;0.30;;;;;;;11.31;100.00;101485.97;4918547;29;20043;-93
2024/02/03 02:36:20;;;;;;;1.48;0.50;;;;;;;11.28;100.00;101476.47;4923497;28;20049;-95
2024/02/03 02:38:46;;;;;;;1.00;0.22;;;;;;;11.25;100.00;101482.84;4935409;28;20070;-94
2024/02/03 02:41:12;;;;;;;1.80;0.35;;;;;;;11.25;100.00;101482.00;4936791;28;20042;-94
2024/02/03 02:43:38;;;;;;;0.65;0.22;;;;;;;11.28;100.00;101492.34;4925160;28;20042;-94
2024/02/03 02:46:05;;;;;;;0.35;0.17;;;;;;;11.30;100.00;101493.06;4923585;28;20042;-94
2024/02/03 02:48:31;;;;;;;4.28;0.25;;;;;;;11.23;100.00;101492.72;4946948;28;20388;-95
2024/02/03 02:50:57;;;;;;;0.95;0.20;;;;;;;11.22;100.00;101490.19;4941445;28;20038;-94
2024/02/03 02:53:24;;;;;;;0.98;0.20;;;;;;;11.21;100.00;101491.97;4925282;29;20035;-93
2024/02/03 02:55:50;;;;;;;0.25;0.20;;;;;;;11.19;100.00;101498.38;4931697;28;20026;-95
2024/02/03 02:58:16;;;;;;;0.70;0.13;;;;;;;11.19;100.00;101501.88;4956392;28;20034;-94
2024/02/03 03:00:42;;;;;;;0.38;0.10;;;;;;;11.20;100.00;101490.31;4926177;28;20515;-94
2024/02/03 03:03:08;;;;;;;0.57;0.45;;;;;;;11.16;100.00;101495.00;4926466;28;20070;-90
2024/02/03 03:05:34;;;;;;;0.22;0.10;;;;;;;11.19;100.00;101501.88;4942370;28;20085;-93
2024/02/03 03:08:00;;;;;;;1.35;0.20;;;;;;;11.17;100.00;101487.91;4944576;28;20027;-93
2024/02/03 03:10:32;;;;;;;1.13;0.25;;;;;;;11.17;100.00;101490.56;4917392;29;20039;-93
2024/02/03 03:12:58;;;;;;;2.85;0.30;;;;;;;11.14;100.00;101486.38;4944669;29;20043;-93
2024/02/03 03:15:25;;;;;;;0.50;0.10;;;;;;;11.17;100.00;101495.84;4927379;29;20043;-94
2024/02/03 03:17:51;;;;;;;1.60;0.20;;;;;;;11.18;100.00;101496.69;4943180;28;20039;-93
2024/02/03 03:20:17;;;;;;;2.10;0.20;;;;;;;11.18;100.00;101496.69;4943483;28;20079;-94
2024/02/03 03:22:43;;;;;;;0.47;0.10;;;;;;;11.17;100.00;101493.22;4944400;28;20385;-94
2024/02/03 03:25:09;;;;;;;1.27;0.20;;;;;;;11.13;100.00;101489.13;4943829;28;20038;-94
2024/02/03 03:27:46;;;;;;;6.03;0.20;;;;;;;11.16;100.00;101486.25;4927780;28;20041;-94
2024/02/03 03:30:12;;;;;;;0.60;0.10;;;;;;;11.08;100.00;101476.28;4935002;28;20050;-95
2024/02/03 03:32:38;;;;;;;0.60;0.10;;;;;;;11.09;100.00;101475.28;4940918;28;20073;-94
2024/02/03 03:35:05;;;;;;;1.65;0.20;;;;;;;11.07;100.00;101460.53;4929261;28;20061;-94
2024/02/03 03:37:36;;;;;;;0.20;0.05;;;;;;;11.12;100.00;101483.00;4949723;28;20046;-93
2024/02/03 03:40:03;;;;;;;0.10;0.03;;;;;;;11.05;100.00;101471.22;4929254;28;20027;-94
2024/02/03 03:42:29;;;;;;;0.85;0.10;;;;;;;11.12;100.00;101482.13;4944878;28;20034;-86
2024/02/03 03:44:58;;;;;;;0.20;0.00;;;;;;;11.12;100.00;101471.56;4946750;28;20065;-88
2024/02/03 03:47:24;;;;;;;0.00;0.00;;;;;;;11.03;100.00;101463.41;4926845;28;20025;-93
2024/02/03 03:53:36;;;;;;;1.77;0.10;;;;;;;11.07;100.00;101452.59;4957786;28;20100;-94
2024/02/03 03:56:12;;;;;;;0.10;0.00;;;;;;;11.04;100.00;101464.22;4957119;28;20043;-94
2024/02/03 03:58:38;;;;;;;0.10;0.00;;;;;;;11.06;100.00;101456.16;4921777;28;20045;-93
2024/02/03 04:01:10;;;;;;;0.77;0.20;;;;;;;11.11;100.00;101454.84;4923934;29;20053;-93
2024/02/03 04:03:39;;;;;;;0.55;0.10;;;;;;;11.01;100.00;101457.38;4940587;28;20047;-93
2024/02/03 04:06:06;;;;;;;1.02;0.15;;;;;;;11.03;100.00;101449.34;4924999;29;20047;-93
2024/02/03 04:08:33;;;;;;;0.10;0.08;;;;;;;11.08;100.00;101460.41;4916328;28;20069;-94
2024/02/03 04:11:02;;;;;;;0.50;0.13;;;;;;;11.07;100.00;101456.03;4942632;28;20033;-92
2024/02/03 04:13:28;;;;;;;1.45;0.30;;;;;;;11.03;100.00;101458.13;4924366;28;20031;-92
2024/02/03 04:15:55;;;;;;;0.17;0.10;;;;;;;11.04;100.00;101458.94;4928544;28;20114;-93
2024/02/03 04:18:25;;;;;;;2.10;0.20;;;;;;;11.08;100.00;101462.19;4942688;28;20105;-96
2024/02/03 04:20:51;;;;;;;0.25;0.10;;;;;;;10.98;100.00;101448.84;4955100;28;20035;-93
2024/02/03 04:23:17;;;;;;;1.42;0.08;;;;;;;10.96;100.00;101453.44;4945544;28;20054;-94
2024/02/03 04:25:44;;;;;;;0.10;0.10;;;;;;;10.97;100.00;101461.25;4942790;28;20034;-92
2024/02/03 04:28:10;;;;;;;1.10;0.10;;;;;;;10.91;100.00;101449.34;4942267;28;20675;-94
2024/02/03 04:30:36;;;;;;;0.35;0.08;;;;;;;10.99;100.00;101456.66;4955869;28;20190;-95
2024/02/03 04:33:14;;;;;;;0.10;0.10;;;;;;;10.94;100.00;101442.94;4922326;28;20478;-94
2024/02/03 04:35:46;;;;;;;0.70;0.10;;;;;;;10.93;100.00;101451.88;4942871;28;20051;-94
2024/02/03 04:38:12;;;;;;;0.10;0.10;;;;;;;10.98;100.00;101446.19;4926268;28;20050;-93
2024/02/03 04:40:38;;;;;;;0.10;0.10;;;;;;;10.92;100.00;101427.19;4924627;28;20039;-93
2024/02/03 04:43:07;;;;;;;0.35;0.00;;;;;;;10.97;100.00;101436.59;4941578;28;20281;-94
2024/02/03 04:45:33;;;;;;;0.15;0.03;;;;;;;10.93;100.00;101428.06;4936617;28;20085;-93
2024/02/03 04:47:59;;;;;;;0.00;0.00;;;;;;;10.90;100.00;101415.94;4927597;28;20062;-93
2024/02/03 04:50:28;;;;;;;0.10;0.10;;;;;;;10.92;100.00;101424.56;4943153;28;20065;-96
2024/02/03 04:52:57;;;;;;;0.38;0.10;;;;;;;10.99;100.00;101422.28;4941870;28;20035;-95
2024/02/03 04:55:23;;;;;;;0.00;0.00;;;;;;;10.94;100.00;101432.38;4959007;28;20034;-94
2024/02/03 04:57:52;;;;;;;0.05;0.00;;;;;;;10.94;100.00;101421.78;4957851;28;20034;-93
2024/02/03 05:00:21;;;;;;;0.10;0.00;;;;;;;10.92;100.00;101413.97;4936730;28;20030;-93
2024/02/03 05:02:47;;;;;;;0.10;0.10;;;;;;;10.94;100.00;101439.47;4959127;28;20027;-93
2024/02/03 05:05:13;;;;;;;0.65;0.10;;;;;;;10.95;100.00;101435.88;4964960;28;20188;-93
2024/02/03 05:07:52;;;;;;;0.68;0.38;;;;;;;10.94;100.00;101435.00;4924571;28;20058;-94
2024/02/03 05:10:18;;;;;;;0.00;0.00;;;;;;;10.87;100.00;101436.47;4941717;28;20042;-95
2024/02/03 05:12:44;;;;;;;0.45;0.10;;;;;;;10.86;100.00;101443.56;4922889;29;20102;-93
2024/02/03 05:15:10;;;;;;;0.20;0.03;;;;;;;10.86;100.00;101446.22;4920617;28;20041;-93
2024/02/03 05:17:36;;;;;;;0.63;0.10;;;;;;;10.87;100.00;101450.56;4914265;29;20573;-93
2024/02/03 05:20:05;;;;;;;0.28;0.10;;;;;;;10.90;100.00;101449.47;4942254;28;20531;-94
2024/02/03 05:22:37;;;;;;;1.17;0.52;;;;;;;10.91;100.00;101454.63;4940908;28;20117;-95
2024/02/03 05:25:06;;;;;;;2.75;0.15;;;;;;;10.93;100.00;101462.44;4939289;28;20061;-92
2024/02/03 05:27:32;;;;;;;0.00;0.00;;;;;;;10.90;100.00;101457.41;4940509;28;20128;-86
2024/02/03 05:29:58;;;;;;;0.35;0.10;;;;;;;10.93;100.00;101462.44;4913787;28;20095;-92
2024/02/03 05:32:24;;;;;;;0.08;0.08;;;;;;;10.90;100.00;101449.47;4946090;28;20035;-93
2024/02/03 05:34:50;;;;;;;0.15;0.10;;;;;;;10.91;100.00;101459.06;4926602;28;20034;-93
2024/02/03 05:37:16;;;;;;;0.73;0.10;;;;;;;10.90;100.00;101460.03;4941619;28;20093;-92
2024/02/03 05:39:44;;;;;;;0.15;0.10;;;;;;;10.92;100.00;101474.00;4940343;28;20503;-93
2024/02/03 05:42:10;;;;;;;0.30;0.15;;;;;;;10.91;100.00;101459.06;4925174;28;20035;-92
2024/02/03 05:44:36;;;;;;;0.13;0.10;;;;;;;10.90;100.00;101465.34;4967071;28;20402;-93
2024/02/03 05:47:02;;;;;;;0.10;0.10;;;;;;;10.88;100.00;101462.81;4959420;28;20554;-92
2024/02/03 05:49:29;;;;;;;0.20;0.10;;;;;;;10.89;100.00;101461.84;4926366;28;20093;-93
2024/02/03 05:52:01;;;;;;;0.03;0.03;;;;;;;10.93;100.00;101473.03;4940827;28;20046;-93
2024/02/03 05:54:28;;;;;;;0.40;0.20;;;;;;;10.91;100.00;101467.00;4955021;28;20046;-93
2024/02/03 05:56:53;;;;;;;1.95;0.20;;;;;;;10.90;100.00;101474.13;4941089;28;20392;-93
2024/02/03 05:59:19;;;;;;;0.30;0.20;;;;;;;10.89;100.00;101475.06;4941934;28;20125;-83
2024/02/03 06:01:45;;;;;;;0.10;0.10;;;;;;;10.91;100.00;101470.50;4937777;28;20042;-85
2024/02/03 06:04:11;;;;;;;0.25;0.10;;;;;;;10.91;100.00;101473.16;4933892;29;20628;-84
2024/02/03 06:06:37;;;;;;;0.10;0.10;;;;;;;10.90;100.00;101465.34;4962617;28;20035;-83
2024/02/03 06:09:03;;;;;;;0.05;0.05;;;;;;;10.91;100.00;101475.78;4919715;29;20063;-83
2024/02/03 06:11:30;;;;;;;0.10;0.10;;;;;;;10.90;100.00;101476.75;4943728;28;20042;-84
2024/02/03 06:13:56;;;;;;;0.25;0.10;;;;;;;10.91;100.00;101472.28;4954586;28;20046;-84
2024/02/03 06:16:27;;;;;;;0.10;0.03;;;;;;;10.98;100.00;101470.00;4949592;28;20405;-89
2024/02/03 06:18:53;;;;;;;0.00;0.00;;;;;;;10.88;100.00;101461.94;4899591;29;20075;-84
2024/02/03 06:21:19;;;;;;;0.20;0.10;;;;;;;10.90;100.00;101463.53;4922310;28;20039;-84
2024/02/03 06:23:45;;;;;;;0.10;0.00;;;;;;;10.91;100.00;101464.34;4908652;29;20039;-84
2024/02/03 06:26:10;;;;;;;0.00;0.00;;;;;;;10.92;100.00;101452.84;4917315;28;20488;-85
2024/02/03 06:28:36;;;;;;;0.08;0.08;;;;;;;10.90;100.00;101460.03;4929843;28;20078;-84
2024/02/03 06:31:04;;;;;;;0.00;0.00;;;;;;;10.96;100.00;101469.31;4935568;28;20553;-84
2024/02/03 06:33:33;;;;;;;0.00;0.00;;;;;;;10.93;100.00;101462.44;4918298;29;20039;-83
2024/02/03 06:36:00;;;;;;;0.20;0.00;;;;;;;10.91;100.00;101469.66;4961860;28;20049;-84
2024/02/03 06:38:28;;;;;;;0.00;0.00;;;;;;;10.92;100.00;101468.72;4942699;28;20042;-84
2024/02/03 06:40:53;;;;;;;0.00;0.00;;;;;;;10.91;100.00;101472.28;4930384;28;20389;-84
2024/02/03 06:43:19;;;;;;;0.00;0.00;;;;;;;10.90;100.00;101470.63;4922618;29;20046;-83
2024/02/03 06:45:45;;;;;;;0.40;0.10;;;;;;;10.91;100.00;101469.66;4939898;28;20061;-84
2024/02/03 06:48:11;;;;;;;0.00;0.00;;;;;;;10.92;100.00;101474.00;4937554;28;20097;-85
2024/02/03 06:50:37;;;;;;;0.00;0.00;;;;;;;10.95;100.00;101471.09;4941942;28;20035;-84
2024/02/03 06:53:03;;;;;;;0.28;0.10;;;;;;;10.94;100.00;101471.22;4934344;29;20496;-84
2024/02/03 06:55:29;;;;;;;0.10;0.10;;;;;;;10.92;100.00;101480.09;4933622;29;20487;-85
2024/02/03 06:57:55;;;;;;;0.10;0.10;;;;;;;10.91;100.00;101478.44;4953394;28;20094;-84
2024/02/03 07:00:20;;;;;;;1.42;0.20;;;;;;;10.88;100.00;101475.19;4919861;29;20043;-84
2024/02/03 07:02:47;;;;;;;0.30;0.20;;;;;;;10.90;100.00;101473.25;4941063;28;20130;-84
2024/02/03 07:05:13;;;;;;;0.13;0.10;;;;;;;10.90;100.00;101467.97;4947301;28;20187;-86
2024/02/03 07:07:38;;;;;;;0.10;0.10;;;;;;;10.87;100.00;101476.16;4948657;28;20653;-85
2024/02/03 07:10:05;;;;;;;0.30;0.10;;;;;;;10.84;100.00;101469.31;4962205;28;20490;-85
2024/02/03 07:12:30;;;;;;;0.20;0.20;;;;;;;10.83;100.00;101464.97;4973174;28;20130;-87
2024/02/03 07:14:56;;;;;;;4.85;2.95;;;;;;;10.83;100.00;101470.25;4955181;28;20034;-85
2024/02/03 07:17:22;;;;;;;0.95;0.43;;;;;;;10.82;100.00;101450.06;4942238;28;20043;-84
2024/02/03 07:19:47;;;;;;;0.47;0.40;;;;;;;10.88;100.00;101469.88;4962059;28;20595;-84
2024/02/03 07:22:13;;;;;;;0.00;0.00;;;;;;;10.85;100.00;101463.06;4954574;28;20035;-83
2024/02/03 07:24:39;;;;;;;0.10;0.10;;;;;;;10.85;100.00;101459.56;4945462;28;20039;-84
2024/02/03 07:27:05;;;;;;;0.30;0.10;;;;;;;10.84;100.00;101465.81;4939783;28;20042;-83
2024/02/03 07:29:32;;;;;;;0.20;0.03;;;;;;;10.85;100.00;101464.84;4961186;28;20043;-84
2024/02/03 07:32:01;;;;;;;0.03;0.00;;;;;;;10.85;100.00;101456.91;4948827;28;20034;-84
2024/02/03 07:34:28;;;;;;;0.47;0.10;;;;;;;10.83;100.00;101472.06;4962832;28;20035;-84
2024/02/03 07:36:54;;;;;;;0.15;0.05;;;;;;;10.83;100.00;101480.00;4916273;28;20038;-83
2024/02/03 07:39:20;;;;;;;0.00;0.00;;;;;;;10.83;100.00;101482.66;4979948;28;20037;-82
2024/02/03 07:41:46;;;;;;;0.03;0.00;;;;;;;10.83;100.00;101485.31;4939358;28;20038;-84
2024/02/03 07:44:12;;;;;;;0.10;0.10;;;;;;;10.84;100.00;101481.69;4943148;28;20047;-82
2024/02/03 07:46:39;;;;;;;0.00;0.00;;;;;;;10.85;100.00;101486.00;4973974;28;20042;-83
2024/02/03 07:49:05;;;;;;;0.00;0.00;;;;;;;10.85;100.00;101496.56;4978229;28;20030;-86
2024/02/03 07:51:32;;;;;;;0.00;0.00;;;;;;;10.84;100.00;101489.63;4925144;28;20185;-83
2024/02/03 07:53:58;;;;;;;0.10;0.10;;;;;;;10.83;100.00;101485.31;4958700;28;20066;-83
2024/02/03 07:56:23;;;;;;;0.00;0.00;;;;;;;10.88;100.00;101488.41;4942268;28;20202;-83
2024/02/03 07:58:51;;;;;;;1.25;0.00;;;;;;;10.85;100.00;101476.28;4961960;28;20035;-83
2024/02/03 08:01:20;;;;;;;0.00;0.00;;;;;;;10.90;100.00;101474.13;4955626;28;20093;-83
2024/02/03 08:03:47;;;;;;;0.10;0.10;;;;;;;10.87;100.00;101476.16;4944382;28;20070;-83
2024/02/03 08:06:13;;;;;;;0.08;0.08;;;;;;;10.86;100.00;101493.00;4954720;28;20113;-85
2024/02/03 08:08:39;;;;;;;0.30;0.13;;;;;;;10.83;100.00;101483.47;4955873;28;20031;-82
2024/02/03 08:11:05;;;;;;;0.10;0.10;;;;;;;10.81;100.00;101474.84;4953113;28;20057;-84
2024/02/03 08:13:31;;;;;;;16.83;15.23;;;;;;;10.85;100.00;101486.84;4955829;28;20648;-84
2024/02/03 08:15:57;;;;;;;0.20;0.20;;;;;;;10.86;100.00;101488.53;4955165;28;20042;-83
2024/02/03 08:18:22;;;;;;;0.10;0.10;;;;;;;10.86;100.00;101488.53;4938166;28;20203;-85
2024/02/03 08:20:48;;;;;;;0.10;0.10;;;;;;;10.90;100.00;101494.44;4922224;28;20630;-85
2024/02/03 08:23:14;;;;;;;0.20;0.20;;;;;;;10.89;100.00;101498.03;4952223;28;20042;-83
2024/02/03 08:25:40;;;;;;;0.50;0.30;;;;;;;10.87;100.00;101498.16;4933610;28;20038;-84
2024/02/03 08:28:06;;;;;;;0.20;0.20;;;;;;;10.88;100.00;101496.34;4945367;28;20038;-84
2024/02/03 08:30:31;;;;;;;0.10;0.10;;;;;;;10.92;100.00;101498.63;4944286;28;20497;-84
2024/02/03 08:32:57;;;;;;;0.30;0.30;;;;;;;10.89;100.00;101508.63;4938300;28;20038;-84
2024/02/03 08:35:23;;;;;;;0.35;0.35;;;;;;;10.91;100.00;101504.03;4919923;28;20030;-85
2024/02/03 08:37:49;;;;;;;0.30;0.30;;;;;;;10.92;100.00;101503.09;4957151;28;20093;-85
2024/02/03 08:40:18;;;;;;;0.40;0.40;;;;;;;10.95;100.00;101512.59;4953537;28;20038;-85
2024/02/03 08:42:45;;;;;;;0.47;0.47;;;;;;;10.97;100.00;101515.97;4946922;28;20053;-86
2024/02/03 08:45:11;;;;;;;0.40;0.40;;;;;;;10.97;100.00;101516.81;4926029;28;20039;-86
2024/02/03 08:47:38;;;;;;;2.42;0.40;;;;;;;10.95;100.00;101517.88;4938637;28;20318;-85
2024/02/03 08:50:04;;;;;;;0.50;0.32;;;;;;;10.98;100.00;101517.63;4959657;28;20041;-85
2024/02/03 08:52:30;;;;;;;4.95;0.47;;;;;;;10.98;100.00;101518.47;4956011;28;20034;-85
2024/02/03 08:54:56;;;;;;;0.30;0.30;;;;;;;10.99;100.00;101514.03;4942295;28;20038;-85
2024/02/03 08:57:22;;;;;;;0.20;0.20;;;;;;;11.01;100.00;101514.75;4963952;28;20038;-85
2024/02/03 08:59:50;;;;;;;0.40;0.30;;;;;;;11.02;100.00;101514.63;4958689;28;20043;-85
2024/02/03 09:02:18;;;;;;;0.47;0.40;;;;;;;11.01;100.00;101517.38;4955324;28;20086;-85
2024/02/03 09:04:44;;;;;;;0.93;0.45;;;;;;;11.06;100.00;101511.72;4940463;28;20523;-85
2024/02/03 09:07:09;;;;;;;0.40;0.30;;;;;;;11.08;100.00;101510.66;4950823;28;20034;-85
2024/02/03 09:09:35;;;;;;;0.63;0.50;;;;;;;11.11;100.00;101517.50;4949268;28;20133;-85
2024/02/03 09:12:01;;;;;;;2.95;2.75;;;;;;;11.14;100.00;101517.25;4935179;28;21352;-85
2024/02/03 09:14:27;;;;;;;0.73;0.73;;;;;;;11.16;100.00;101518.81;4959118;28;20105;-85
2024/02/03 09:16:53;;;;;;;0.98;0.88;;;;;;;11.19;100.00;101516.91;4920929;28;20082;-85
2024/02/03 09:19:19;;;;;;;1.65;0.80;;;;;;;11.20;100.00;101516.78;4941798;28;20042;-85
2024/02/03 09:21:44;;;;;;;0.90;0.60;;;;;;;11.21;100.00;101531.69;4953868;28;20385;-84
2024/02/03 09:24:10;;;;;;;1.05;0.43;;;;;;;11.16;100.00;101526.75;4938017;28;20629;-84
2024/02/03 09:26:39;;;;;;;0.55;0.40;;;;;;;11.06;100.00;101524.97;4923627;28;20042;-85
2024/02/03 09:29:08;;;;;;;0.32;0.30;;;;;;;10.97;100.00;101526.53;4952991;28;20031;-85
2024/02/03 09:31:34;;;;;;;0.20;0.10;;;;;;;10.86;100.00;101530.84;4918641;28;20636;-85
2024/02/03 09:34:05;;;;;;;0.17;0.10;;;;;;;10.78;100.00;101533.25;4939995;28;20050;-87
2024/02/03 09:36:34;;;;;;;0.30;0.30;;;;;;;10.67;100.00;101536.75;4950365;28;20034;-86
2024/02/03 09:39:09;;;;;;;0.10;0.10;;;;;;;10.59;100.00;101531.19;4945938;28;20046;-84
2024/02/03 09:41:35;;;;;;;0.30;0.30;;;;;;;10.47;100.00;101527.66;4953165;28;20104;-84
2024/02/03 09:44:03;;;;;;;0.38;0.38;;;;;;;10.46;100.00;101531.25;4946418;28;20100;-86
2024/02/03 09:46:31;;;;;;;0.30;0.20;;;;;;;10.44;100.00;101536.66;4953450;28;20159;-87
2024/02/03 09:48:58;;;;;;;0.65;0.43;;;;;;;10.40;100.00;101541.31;4959421;28;20077;-86
2024/02/03 09:51:24;;;;;;;0.47;0.13;;;;;;;10.37;100.00;101546.84;4938117;28;20058;-86
2024/02/03 09:53:52;;;;;;;0.30;0.28;;;;;;;10.34;100.00;101554.16;4954308;28;20104;-86
2024/02/03 09:56:18;;;;;;;0.20;0.20;;;;;;;10.30;100.00;101558.84;4933535;28;20046;-86
2024/02/03 09:58:44;;;;;;;0.40;0.40;;;;;;;10.26;100.00;101554.72;4975618;28;20046;-85
2024/02/03 10:01:10;;;;;;;0.63;0.32;;;;;;;10.18;100.00;101556.16;4954808;28;20031;-85
2024/02/03 10:03:36;;;;;;;0.32;0.10;;;;;;;10.14;100.00;101562.63;4976993;28;20055;-86
2024/02/03 10:06:15;;;;;;;;;;;;;;;;;;;;;
2024/02/03 10:09:23;;;;;;;0.52;0.00;;;;;;;10.29;100.00;101571.19;4961385;28;20066;-86
2024/02/03 10:11:49;;;;;;;0.05;0.03;;;;;;;10.27;100.00;101564.34;4969054;28;20457;-87
2024/02/03 10:14:26;;;;;;;0.47;0.00;;;;;;;10.27;100.00;101559.06;4969353;28;20034;-86
2024/02/03 10:16:52;;;;;;;3.97;3.60;;;;;;;10.33;100.00;101560.41;4953380;28;20089;-86
2024/02/03 10:19:20;;;;;;;0.57;0.13;;;;;;;10.45;100.00;101561.28;4957037;28;20528;-86
2024/02/03 10:21:46;;;;;;;0.40;0.10;;;;;;;10.39;100.00;101559.94;4952322;28;20043;-86
2024/02/03 10:24:19;;;;;;;0.17;0.17;;;;;;;10.41;100.00;101571.25;4955347;28;20062;-86
2024/02/03 10:26:44;;;;;;;0.10;0.00;;;;;;;10.44;100.00;101568.38;4941516;28;20397;-86
2024/02/03 10:29:17;;;;;;;0.03;0.03;;;;;;;10.55;100.00;101575.50;4960600;28;20042;-85
2024/02/03 10:31:47;;;;;;;0.38;0.10;;;;;;;10.58;100.00;101572.63;4937000;28;20035;-86
2024/02/03 10:34:14;;;;;;;0.00;0.00;;;;;;;10.57;100.00;101581.53;4941450;28;20042;-85
2024/02/03 10:36:41;;;;;;;0.82;0.20;;;;;;;10.46;100.00;101578.81;4928031;28;20061;-84
2024/02/03 10:39:07;;;;;;;0.00;0.00;;;;;;;10.40;100.00;101580.97;4936164;28;20039;-84
2024/02/03 10:41:36;;;;;;;0.10;0.10;;;;;;;10.45;100.00;101587.72;4963695;28;20771;-84
2024/02/03 10:44:07;;;;;;;0.17;0.10;;;;;;;10.46;100.00;101578.81;4949050;28;20500;-85
2024/02/03 10:46:40;;;;;;;0.10;0.10;;;;;;;10.50;100.00;101583.78;4951753;28;20071;-84
2024/02/03 10:49:16;;;;;;;0.00;0.00;;;;;;;10.50;100.00;101580.31;4932748;28;20049;-85
2024/02/03 10:51:46;;;;;;;0.52;0.52;;;;;;;10.51;100.00;101579.38;4934856;28;20110;-84
2024/02/03 10:54:17;;;;;;;0.10;0.10;;;;;;;10.49;100.00;101574.19;4965412;28;20074;-85
2024/02/03 10:56:49;;;;;;;0.10;0.10;;;;;;;10.45;100.00;101583.25;4911118;28;20035;-85
2024/02/03 10:59:19;;;;;;;0.35;0.15;;;;;;;10.40;100.00;101574.84;4930030;29;20035;-84
2024/02/03 11:01:45;;;;;;;0.00;0.00;;;;;;;10.34;100.00;101581.44;4944445;28;20035;-86
2024/02/03 11:04:16;;;;;;;0.77;0.10;;;;;;;10.33;100.00;101587.69;4936494;28;20062;-87
2024/02/03 11:06:47;;;;;;;0.45;0.20;;;;;;;10.34;100.00;101588.50;4937100;28;20073;-87
2024/02/03 11:09:14;;;;;;;0.47;0.10;;;;;;;10.27;100.00;101574.94;4925377;28;20031;-86
2024/02/03 11:11:44;;;;;;;0.65;0.10;;;;;;;10.30;100.00;101588.72;4908149;29;20043;-88
2024/02/03 11:14:17;;;;;;;0.35;0.10;;;;;;;10.32;100.00;101595.72;4946285;28;20157;-87
2024/02/03 11:16:51;;;;;;;1.02;0.20;;;;;;;10.39;100.00;101596.94;4961670;28;20090;-88
2024/02/03 11:19:17;;;;;;;0.38;0.10;;;;;;;10.36;100.00;101595.38;4928157;28;20042;-87
2024/02/03 11:21:43;;;;;;;0.00;0.00;;;;;;;10.39;100.00;101599.59;4920647;28;20429;-85
2024/02/03 11:24:10;;;;;;;0.32;0.10;;;;;;;10.45;100.00;101593.84;4953081;28;20129;-85
2024/02/03 11:26:37;;;;;;;0.20;0.10;;;;;;;10.53;100.00;101591.50;4958053;28;20069;-86